メインページ
METAR-TAF:

METAR-TAF

空港 :

Kalaleh, イラン

緯度: 37-22-60N, 経度: 55-27-07E, 海抜: 130m

現時点の気象観測

当レポートは42分前の04:00(UTC)に作成
無風
気温 10°C
湿度 87%
気圧 1018 hPa
視程10km以上
高度2500ftの千切れ雲あり
高度8000ftの曇り

METAR: OINE 220400Z 00000KT 9999 BKN025 OVC080 10/08 Q1018

時間: 09:12 (04:42 UTC)


TAF: 見つかりません

4,000以上の空港の気象観測と天気予報(METAR報とTAF報)

利用可能な観測所は地図上に黄色い丸と赤い丸で示す。

丸の上にカーソルを重ねると観測所名を参照できる。

次にクリックすると気象観測と天気予報を参照できる。

マップの切り替え:黒色「×」印の緑ボタンをクリックして拡大、「-」印の緑ボタンをクリックして縮小、緑色の三角印をクリックして隣りの地図に切り替え


METAR-TAF: